createdAt,value
2024-03-11T00:01:13.142Z,86.7
2024-03-11T00:03:11.920Z,85.8
2024-03-11T00:05:12.136Z,84.8
2024-03-11T00:07:11.471Z,85.6
2024-03-11T00:09:11.380Z,87.6
2024-03-11T00:11:10.938Z,84.2
2024-03-11T00:13:10.856Z,87.5
2024-03-11T00:15:10.351Z,87
2024-03-11T00:17:10.131Z,88.6
2024-03-11T00:19:09.900Z,86.7
2024-03-11T00:21:09.566Z,88.8
2024-03-11T00:23:09.389Z,87.7
2024-03-11T00:25:10.434Z,89.2
2024-03-11T00:27:09.034Z,88.2
2024-03-11T00:29:08.604Z,88.9
2024-03-11T00:31:08.342Z,88.6
2024-03-11T00:33:08.115Z,89.9
2024-03-11T00:35:08.504Z,91.6
2024-03-11T00:37:07.703Z,89.6
2024-03-11T00:39:07.279Z,91.8
2024-03-11T00:41:06.962Z,89.9
2024-03-11T00:43:06.783Z,91.2
2024-03-11T00:45:07.476Z,89.9
2024-03-11T00:47:06.300Z,88.8
2024-03-11T00:49:08.594Z,91.7
2024-03-11T00:51:05.657Z,88.2
2024-03-11T00:53:05.524Z,89.9
2024-03-11T00:55:06.160Z,88
2024-03-11T00:57:05.017Z,89.8
2024-03-11T00:59:04.686Z,90.1
2024-03-11T01:01:05.274Z,91.5
2024-03-11T01:03:04.655Z,91.4
2024-03-11T01:05:04.567Z,91.1
2024-03-11T01:07:12.604Z,90.9
2024-03-11T01:09:03.720Z,90.5
2024-03-11T01:11:03.378Z,88.8
2024-03-11T01:13:03.051Z,88.9
2024-03-11T01:15:03.008Z,89.8
2024-03-11T01:17:02.312Z,93.5
2024-03-11T01:19:02.077Z,89.1
2024-03-11T01:21:01.822Z,91.8
2024-03-11T01:23:01.596Z,90.5
2024-03-11T01:25:01.420Z,89
2024-03-11T01:27:01.021Z,90.8
2024-03-11T01:29:00.788Z,91.2
2024-03-11T01:31:00.477Z,92.4
2024-03-11T01:33:00.341Z,95.5
2024-03-11T01:35:00.599Z,93
2024-03-11T01:36:59.737Z,93.3
2024-03-11T01:38:59.431Z,91.6
2024-03-11T01:40:59.132Z,93.6
2024-03-11T01:42:58.932Z,92.9
2024-03-11T01:44:58.654Z,90.4
2024-03-11T01:46:58.337Z,91.5
2024-03-11T01:48:58.620Z,91.5
2024-03-11T01:50:57.964Z,93.5
2024-03-11T01:52:59.058Z,91.4
2024-03-11T01:54:58.132Z,91.4
2024-03-11T01:56:57.547Z,92.2
2024-03-11T01:58:58.048Z,96.2
2024-03-11T02:00:56.705Z,92.8
2024-03-11T02:02:56.514Z,92.8
2024-03-11T02:04:56.029Z,92
2024-03-11T02:06:55.704Z,95
2024-03-11T02:08:55.447Z,93.9
2024-03-11T02:10:55.831Z,93.9
2024-03-11T02:12:55.730Z,95.1
2024-03-11T02:14:54.570Z,92.5
2024-03-11T02:16:54.567Z,94.2
2024-03-11T02:18:54.038Z,97
2024-03-11T02:20:53.709Z,95.9
2024-03-11T02:22:54.814Z,92.4
2024-03-11T02:24:53.244Z,95.5
2024-03-11T02:26:52.833Z,92.6
2024-03-11T02:28:52.527Z,94.6
2024-03-11T02:30:52.266Z,92.2
2024-03-11T02:32:52.240Z,95.5
2024-03-11T02:34:51.635Z,94.9
2024-03-11T02:36:51.608Z,94.8
2024-03-11T02:38:51.242Z,93.2
2024-03-11T02:40:51.009Z,93.6
2024-03-11T02:42:50.527Z,93.2
2024-03-11T02:44:50.329Z,93.2
2024-03-11T02:46:49.961Z,93.2
2024-03-11T02:48:49.693Z,94.3
2024-03-11T02:50:49.404Z,93.2
2024-03-11T02:52:49.083Z,93.1
2024-03-11T02:54:48.771Z,92.3
2024-03-11T02:56:48.968Z,93.2
2024-03-11T02:58:48.228Z,96.7
2024-03-11T03:00:48.653Z,94.8
2024-03-11T03:02:48.443Z,92
2024-03-11T03:04:47.360Z,94.4
2024-03-11T03:06:47.123Z,97.3
2024-03-11T03:08:46.886Z,94.7
2024-03-11T03:10:46.623Z,93.1
2024-03-11T03:12:46.559Z,94.9
2024-03-11T03:14:46.004Z,96.3
2024-03-11T03:16:45.675Z,94
2024-03-11T03:18:45.426Z,97
2024-03-11T03:20:45.193Z,94.6
2024-03-11T03:22:44.998Z,95.7
2024-03-11T03:24:45.292Z,93.6
2024-03-11T03:26:44.431Z,94.9
2024-03-11T03:28:43.975Z,95.2
2024-03-11T03:30:43.778Z,92.7
2024-03-11T03:32:43.522Z,94.6
2024-03-11T03:34:43.178Z,94.2
2024-03-11T03:36:43.174Z,95.5
2024-03-11T03:38:42.670Z,95.2
2024-03-11T03:40:42.469Z,96.4
2024-03-11T03:42:42.309Z,93.7
2024-03-11T03:44:41.840Z,95.3
2024-03-11T03:46:41.551Z,94.1
2024-03-11T03:48:41.251Z,95.3
2024-03-11T03:50:41.122Z,95.9
2024-03-11T03:52:41.182Z,96.9
2024-03-11T03:54:40.380Z,96.9
2024-03-11T03:56:40.323Z,96.9
2024-03-11T03:58:39.835Z,94.5
2024-03-11T04:00:39.716Z,95.5
2024-03-11T04:02:39.712Z,95.5
2024-03-11T04:04:39.281Z,94.8
2024-03-11T04:06:38.859Z,95.6
2024-03-11T04:08:38.491Z,95.6
2024-03-11T04:10:38.151Z,92.6
2024-03-11T04:12:38.294Z,91.1
2024-03-11T04:14:39.187Z,86.9
2024-03-11T04:16:37.392Z,86.9
2024-03-11T04:18:37.173Z,85.7
2024-03-11T04:20:37.149Z,88.1
2024-03-11T04:22:36.772Z,92.7
2024-03-11T04:24:36.480Z,93.4
2024-03-11T04:26:36.267Z,92.3
2024-03-11T04:28:35.980Z,91.6
2024-03-11T04:30:37.987Z,93.5
2024-03-11T04:32:35.715Z,90.7
2024-03-11T04:34:38.568Z,90.7
2024-03-11T04:36:36.863Z,89.2
2024-03-11T04:38:34.952Z,90.3
2024-03-11T04:40:36.576Z,90
2024-03-11T04:42:34.419Z,88.7
2024-03-11T04:44:34.165Z,89.6
2024-03-11T04:46:33.836Z,89
2024-03-11T04:48:33.595Z,88.5
2024-03-11T04:50:35.780Z,92.9
2024-03-11T04:52:33.034Z,90
2024-03-11T04:54:32.821Z,89.2
2024-03-11T04:56:32.607Z,90.6
2024-03-11T04:58:32.450Z,88.2
2024-03-11T05:00:32.668Z,88.3
2024-03-11T05:02:31.862Z,88.9
2024-03-11T05:04:31.537Z,87.7
2024-03-11T05:06:31.345Z,86.7
2024-03-11T05:08:31.052Z,87.2
2024-03-11T05:10:31.373Z,87.2
2024-03-11T05:12:30.956Z,87.8
2024-03-11T05:14:30.409Z,89.3
2024-03-11T05:16:30.232Z,87
2024-03-11T05:18:30.076Z,87.5
2024-03-11T05:20:29.801Z,88.9
2024-03-11T05:22:30.058Z,89.7
2024-03-11T05:24:29.405Z,86.9
2024-03-11T05:26:29.175Z,85
2024-03-11T05:28:28.909Z,86
2024-03-11T05:30:28.842Z,87.2
2024-03-11T05:32:28.614Z,87
2024-03-11T05:34:28.423Z,85.9
2024-03-11T05:36:28.322Z,85.5
2024-03-11T05:38:28.019Z,85.1
2024-03-11T05:40:27.746Z,85.1
2024-03-11T05:42:27.751Z,84.5
2024-03-11T05:44:27.420Z,83.7
2024-03-11T05:46:27.294Z,83.7
2024-03-11T05:48:27.211Z,83.7
2024-03-11T05:50:26.996Z,83
2024-03-11T05:52:27.120Z,83.5
2024-03-11T05:54:26.664Z,84.3
2024-03-11T05:56:26.557Z,82.5
2024-03-11T05:58:26.587Z,81.6
2024-03-11T06:00:26.340Z,81.9
2024-03-11T06:02:26.201Z,81.9
2024-03-11T06:04:26.233Z,83.1
2024-03-11T06:06:25.928Z,83.1
2024-03-11T06:08:26.906Z,83.1
2024-03-11T06:10:25.830Z,83.5
2024-03-11T06:12:25.632Z,84.5
2024-03-11T06:14:25.453Z,83.8
2024-03-11T06:16:25.327Z,83.2
2024-03-11T06:18:25.287Z,83.2
2024-03-11T06:20:25.116Z,83.8
2024-03-11T06:22:24.971Z,83.4
2024-03-11T06:24:24.771Z,83.9
2024-03-11T06:26:24.672Z,83.9
2024-03-11T06:28:24.628Z,83.2
2024-03-11T06:30:24.463Z,82.4
2024-03-11T06:32:24.670Z,81.1
2024-03-11T06:34:24.239Z,81.1
2024-03-11T06:36:24.027Z,80.1
2024-03-11T06:38:23.890Z,79.6
2024-03-11T06:40:23.766Z,80.4
2024-03-11T06:42:23.749Z,80.4
2024-03-11T06:44:32.912Z,80.8
2024-03-11T06:46:23.837Z,80.8
2024-03-11T06:48:23.397Z,80.6
2024-03-11T06:50:23.254Z,79.5
2024-03-11T06:52:23.299Z,80.6
2024-03-11T06:54:23.174Z,79.8
2024-03-11T06:56:23.141Z,80.4
2024-03-11T06:58:22.972Z,79.9
2024-03-11T07:00:22.826Z,79.9
2024-03-11T07:02:22.735Z,79.9
2024-03-11T07:04:22.727Z,79.2
2024-03-11T07:06:22.846Z,78.6
2024-03-11T07:08:22.473Z,80
2024-03-11T07:10:22.874Z,78.6
2024-03-11T07:12:22.358Z,78.5
2024-03-11T07:14:22.257Z,78.5
2024-03-11T07:16:23.300Z,77.5
2024-03-11T07:18:22.502Z,77.5
2024-03-11T07:20:22.225Z,77.5
2024-03-11T07:22:22.074Z,78.1
2024-03-11T07:24:21.909Z,77.9
2024-03-11T07:26:21.876Z,77.9
2024-03-11T07:28:21.900Z,76.3
2024-03-11T07:30:21.777Z,77
2024-03-11T07:32:21.859Z,77
2024-03-11T07:34:21.802Z,77.3
2024-03-11T07:36:21.686Z,77.3
2024-03-11T07:38:21.731Z,77.3
2024-03-11T07:40:21.650Z,78.3
2024-03-11T07:42:22.234Z,77.8
2024-03-11T07:44:21.416Z,77.4
2024-03-11T07:46:21.432Z,78.7
2024-03-11T07:48:21.307Z,77.7
2024-03-11T07:50:21.777Z,77.7
2024-03-11T07:52:21.434Z,79
2024-03-11T07:54:21.265Z,78.3
2024-03-11T07:56:21.195Z,77.5
2024-03-11T07:58:21.176Z,78.3
2024-03-11T08:00:22.542Z,77.4
2024-03-11T08:02:21.260Z,77.4
2024-03-11T08:04:21.033Z,77.6
2024-03-11T08:06:21.048Z,77.6
2024-03-11T08:08:20.848Z,77.6
2024-03-11T08:10:21.246Z,76.1
2024-03-11T08:12:20.771Z,76.7
2024-03-11T08:14:20.974Z,75.2
2024-03-11T08:16:20.823Z,76.2
2024-03-11T08:18:21.193Z,75.3
2024-03-11T08:20:21.042Z,76.1
2024-03-11T08:22:20.683Z,76.2
2024-03-11T08:24:20.575Z,75.8
2024-03-11T08:26:20.602Z,75.8
2024-03-11T08:28:20.560Z,76.3
2024-03-11T08:30:22.189Z,74
2024-03-11T08:32:20.572Z,75.7
2024-03-11T08:34:20.447Z,74.9
2024-03-11T08:36:20.507Z,74.5
2024-03-11T08:38:20.605Z,75.5
2024-03-11T08:40:21.512Z,76.1
2024-03-11T08:42:20.601Z,75.1
2024-03-11T08:44:20.652Z,76.1
2024-03-11T08:46:20.506Z,77.1
2024-03-11T08:48:20.480Z,77.1
2024-03-11T08:50:20.423Z,75.8
2024-03-11T08:52:20.550Z,74.5
2024-03-11T08:54:20.534Z,76.1
2024-03-11T08:56:21.097Z,76.1
2024-03-11T08:58:20.448Z,76.7
2024-03-11T09:00:20.603Z,76.7
2024-03-11T09:02:20.404Z,78.3
2024-03-11T09:04:20.322Z,77.4
2024-03-11T09:06:20.465Z,77.4
2024-03-11T09:08:20.324Z,79.1
2024-03-11T09:10:20.972Z,79.7
2024-03-11T09:12:20.354Z,79.7
2024-03-11T09:14:20.309Z,79.1
2024-03-11T09:16:20.260Z,79.8
2024-03-11T09:18:20.418Z,79.8
2024-03-11T09:20:23.054Z,80.5
2024-03-11T09:22:20.340Z,81.4
2024-03-11T09:24:20.582Z,80.8
2024-03-11T09:26:20.119Z,80.8
2024-03-11T09:28:20.109Z,79.9
2024-03-11T09:30:20.628Z,79.9
2024-03-11T09:32:20.083Z,79.9
2024-03-11T09:34:20.223Z,80.3
2024-03-11T09:36:20.242Z,80.8
2024-03-11T09:38:20.082Z,80.8
2024-03-11T09:40:21.761Z,81.3
2024-03-11T09:42:23.087Z,80.5
2024-03-11T09:44:21.771Z,81.1
2024-03-11T09:46:20.285Z,79.6
2024-03-11T09:48:20.365Z,81.1
2024-03-11T09:50:21.470Z,81.1
2024-03-11T09:52:21.211Z,81.1
2024-03-11T09:54:21.938Z,80.4
2024-03-11T09:56:20.540Z,80.4
2024-03-11T09:58:21.619Z,79.7
2024-03-11T10:00:22.468Z,80.9
2024-03-11T10:02:22.570Z,80.1
2024-03-11T10:04:21.111Z,78.5
2024-03-11T10:06:20.081Z,79.5
2024-03-11T10:08:20.149Z,79.5
2024-03-11T10:10:20.076Z,80.5
2024-03-11T10:12:20.191Z,79.8
2024-03-11T10:14:20.267Z,79.6
2024-03-11T10:16:21.822Z,79.6
2024-03-11T10:18:20.296Z,79.6
2024-03-11T10:20:21.321Z,79.6
2024-03-11T10:22:21.714Z,78.8
2024-03-11T10:24:20.143Z,79.1
2024-03-11T10:26:20.652Z,77.8
2024-03-11T10:28:30.016Z,77.8
2024-03-11T10:30:22.704Z,77.8
2024-03-11T10:32:33.117Z,77.9
2024-03-11T10:34:20.589Z,78.8
2024-03-11T10:36:21.577Z,77.9
2024-03-11T10:38:23.847Z,77.9
2024-03-11T10:40:29.050Z,77.5
2024-03-11T10:42:25.426Z,77
2024-03-11T10:44:21.926Z,77.1
2024-03-11T10:46:21.343Z,76.2
2024-03-11T10:48:23.174Z,77
2024-03-11T10:50:20.312Z,76.4
2024-03-11T10:52:22.510Z,77.2
2024-03-11T10:54:23.271Z,78
2024-03-11T10:56:21.917Z,77.2
2024-03-11T10:58:23.388Z,78.2
2024-03-11T11:00:22.109Z,76.5
2024-03-11T11:02:21.961Z,75.9
2024-03-11T11:04:23.531Z,77.3
2024-03-11T11:06:21.520Z,75.5
2024-03-11T11:08:21.648Z,77
2024-03-11T11:10:22.649Z,77.5
2024-03-11T11:12:20.660Z,76.9
2024-03-11T11:14:21.683Z,76.7
2024-03-11T11:16:21.669Z,76.1
2024-03-11T11:18:21.464Z,76.9
2024-03-11T11:20:23.015Z,76.1
2024-03-11T11:22:20.748Z,76.9
2024-03-11T11:24:30.243Z,76.2
2024-03-11T11:26:40.584Z,77.9
2024-03-11T11:28:26.799Z,77.2
2024-03-11T11:30:20.917Z,75.7
2024-03-11T11:32:30.920Z,77.8
2024-03-11T11:34:35.711Z,77.3
2024-03-11T11:36:50.166Z,76.9
2024-03-11T11:38:27.883Z,76.9
2024-03-11T11:40:35.783Z,77.8
2024-03-11T11:42:33.818Z,76.8
2024-03-11T11:44:50.228Z,77.7
2024-03-11T11:46:42.726Z,77.7
2024-03-11T11:48:23.440Z,78.6
2024-03-11T11:50:35.654Z,77.8
2024-03-11T11:52:21.468Z,77.8
2024-03-11T11:54:30.768Z,78.1
2024-03-11T11:56:22.530Z,77.6
2024-03-11T11:58:21.008Z,78.8
2024-03-11T12:00:24.402Z,78.8
2024-03-11T12:02:23.743Z,78.8
2024-03-11T12:04:20.925Z,79
2024-03-11T12:06:21.165Z,78.9
2024-03-11T12:08:20.983Z,78.8
2024-03-11T12:10:21.206Z,79.1
2024-03-11T12:12:26.556Z,79.1
2024-03-11T12:14:21.114Z,79.1
2024-03-11T12:16:22.634Z,78.2
2024-03-11T12:18:21.039Z,78
2024-03-11T12:20:21.945Z,77.8
2024-03-11T12:22:21.020Z,79.2
2024-03-11T12:24:20.905Z,78.3
2024-03-11T12:26:23.005Z,77.6
2024-03-11T12:28:21.123Z,78.9
2024-03-11T12:30:22.534Z,78.1
2024-03-11T12:32:20.943Z,78.1
2024-03-11T12:34:21.272Z,76.5
2024-03-11T12:36:21.035Z,77.2
2024-03-11T12:38:21.001Z,78.1
2024-03-11T12:40:21.162Z,78.7
2024-03-11T12:42:25.915Z,78
2024-03-11T12:44:20.958Z,77.7
2024-03-11T12:46:21.109Z,77.7
2024-03-11T12:48:22.973Z,78.6
2024-03-11T12:50:20.990Z,77.4
2024-03-11T12:52:21.070Z,78.8
2024-03-11T12:54:22.800Z,78.1
2024-03-11T12:56:21.081Z,77.6
2024-03-11T12:58:21.028Z,78
2024-03-11T13:00:21.264Z,78.8
2024-03-11T13:02:21.293Z,78.2
2024-03-11T13:04:24.521Z,78.7
2024-03-11T13:06:22.170Z,78.7
2024-03-11T13:08:21.122Z,78.1
2024-03-11T13:10:21.162Z,79
2024-03-11T13:12:22.304Z,77.9
2024-03-11T13:14:21.282Z,79.7
2024-03-11T13:16:22.102Z,79
2024-03-11T13:18:21.320Z,79.5
2024-03-11T13:20:21.441Z,78.8
2024-03-11T13:22:21.790Z,80.5
2024-03-11T13:24:21.731Z,77.8
2024-03-11T13:26:21.208Z,77.8
2024-03-11T13:28:21.282Z,79.9
2024-03-11T13:30:21.440Z,78.4
2024-03-11T13:32:21.170Z,79.9
2024-03-11T13:34:21.211Z,79.6
2024-03-11T13:36:21.201Z,78
2024-03-11T13:38:21.269Z,79.1
2024-03-11T13:40:21.231Z,78
2024-03-11T13:42:21.197Z,79.7
2024-03-11T13:44:21.934Z,79.7
2024-03-11T13:46:21.183Z,78.4
2024-03-11T13:48:21.404Z,79
2024-03-11T13:50:21.160Z,79.8
2024-03-11T13:52:21.156Z,79.8
2024-03-11T13:54:21.311Z,79.5
2024-03-11T13:56:21.270Z,79.5
2024-03-11T13:58:21.362Z,79.5
2024-03-11T14:00:21.592Z,79.5
2024-03-11T14:02:21.204Z,78.3
2024-03-11T14:04:21.731Z,79.2
2024-03-11T14:06:21.186Z,79.2
2024-03-11T14:08:21.268Z,79.7
2024-03-11T14:10:21.563Z,80.7
2024-03-11T14:12:21.084Z,80.6
2024-03-11T14:14:21.118Z,81.1
2024-03-11T14:16:21.070Z,79.9
2024-03-11T14:18:22.218Z,79.9
2024-03-11T14:20:21.929Z,80.7
2024-03-11T14:22:21.106Z,80.7
2024-03-11T14:24:21.031Z,81.4
2024-03-11T14:26:20.986Z,81.4
2024-03-11T14:28:20.841Z,81.4
2024-03-11T14:30:22.622Z,79.6
2024-03-11T14:32:20.935Z,80.2
2024-03-11T14:34:20.998Z,80.8
2024-03-11T14:36:20.805Z,80.8
2024-03-11T14:38:20.849Z,81.6
2024-03-11T14:40:21.108Z,80.3
2024-03-11T14:42:20.919Z,80.3
2024-03-11T14:44:20.738Z,80.5
2024-03-11T14:46:20.647Z,80.5
2024-03-11T14:48:20.805Z,80.5
2024-03-11T14:50:21.108Z,80.5
2024-03-11T14:52:20.588Z,80.5
2024-03-11T14:54:22.622Z,80
2024-03-11T14:56:20.830Z,79.7
2024-03-11T14:58:21.153Z,79.7
2024-03-11T15:00:20.750Z,79.7
2024-03-11T15:02:20.618Z,78.6
2024-03-11T15:04:20.906Z,78.1
2024-03-11T15:06:20.859Z,78.9
2024-03-11T15:08:22.203Z,78.4
2024-03-11T15:10:20.545Z,79.5
2024-03-11T15:12:20.515Z,78.4
2024-03-11T15:14:20.476Z,79
2024-03-11T15:16:21.761Z,78.3
2024-03-11T15:18:21.181Z,78.3
2024-03-11T15:20:20.284Z,78.5
2024-03-11T15:22:20.347Z,78.4
2024-03-11T15:24:20.361Z,79
2024-03-11T15:26:20.335Z,78.8
2024-03-11T15:28:20.286Z,78.8
2024-03-11T15:30:20.525Z,77.9
2024-03-11T15:32:20.204Z,77.9
2024-03-11T15:34:20.571Z,78.9
2024-03-11T15:36:20.297Z,78.3
2024-03-11T15:38:21.313Z,78.3
2024-03-11T15:40:20.045Z,78.3
2024-03-11T15:42:20.364Z,78.1
2024-03-11T15:44:20.053Z,77.1
2024-03-11T15:46:20.438Z,77.7
2024-03-11T15:48:20.242Z,77.3
2024-03-11T15:50:19.957Z,78
2024-03-11T15:52:19.894Z,78
2024-03-11T15:54:20.006Z,77.3
2024-03-11T15:56:20.297Z,77.3
2024-03-11T15:58:19.865Z,76.7
2024-03-11T16:00:20.103Z,77.3
2024-03-11T16:02:19.696Z,77.3
2024-03-11T16:04:19.907Z,78
2024-03-11T16:06:19.724Z,77.4
2024-03-11T16:08:22.057Z,77.4
2024-03-11T16:10:21.555Z,78.2
2024-03-11T16:12:20.303Z,77.4
2024-03-11T16:14:19.493Z,77.6
2024-03-11T16:16:19.726Z,77.4
2024-03-11T16:18:19.673Z,78.2
2024-03-11T16:20:19.883Z,77.6
2024-03-11T16:22:21.668Z,78.3
2024-03-11T16:24:19.411Z,76.7
2024-03-11T16:26:19.387Z,77.3
2024-03-11T16:28:19.474Z,78.8
2024-03-11T16:30:22.408Z,78.8
2024-03-11T16:32:19.191Z,78.1
2024-03-11T16:34:19.380Z,77.5
2024-03-11T16:36:19.164Z,78.1
2024-03-11T16:38:19.075Z,78.1
2024-03-11T16:40:19.233Z,79
2024-03-11T16:42:19.103Z,78.4
2024-03-11T16:44:18.963Z,78.9
2024-03-11T16:46:18.880Z,79.4
2024-03-11T16:48:19.155Z,79.4
2024-03-11T16:50:18.844Z,78.6
2024-03-11T16:52:19.406Z,79.2
2024-03-11T16:54:18.931Z,78.6
2024-03-11T16:56:18.752Z,79.3
2024-03-11T16:58:18.811Z,79.3
2024-03-11T17:00:19.691Z,79.3
2024-03-11T17:02:18.586Z,79.3
2024-03-11T17:04:18.891Z,79.4
2024-03-11T17:06:18.713Z,80.1
2024-03-11T17:08:18.469Z,80.1
2024-03-11T17:10:20.490Z,79.5
2024-03-11T17:12:18.489Z,79.5
2024-03-11T17:14:18.354Z,79.6
2024-03-11T17:16:18.675Z,80.1
2024-03-11T17:18:18.425Z,80.1
2024-03-11T17:20:19.388Z,80.1
2024-03-11T17:22:18.408Z,80.1
2024-03-11T17:24:18.238Z,79.6
2024-03-11T17:26:18.286Z,80.2
2024-03-11T17:28:18.540Z,80.2
2024-03-11T17:30:18.285Z,80.9
2024-03-11T17:32:18.080Z,80.9
2024-03-11T17:34:18.224Z,80.8
2024-03-11T17:36:18.093Z,80.8
2024-03-11T17:38:19.596Z,80.8
2024-03-11T17:40:18.925Z,81.6
2024-03-11T17:42:21.176Z,80.3
2024-03-11T17:44:17.974Z,80.9
2024-03-11T17:46:17.930Z,80.9
2024-03-11T17:48:19.178Z,80.9
2024-03-11T17:50:19.012Z,81.5
2024-03-11T17:52:17.810Z,80.3
2024-03-11T17:54:18.283Z,81
2024-03-11T17:56:17.750Z,81
2024-03-11T17:58:17.771Z,81
2024-03-11T18:00:18.558Z,81
2024-03-11T18:02:17.862Z,81
2024-03-11T18:04:17.677Z,81.6
2024-03-11T18:06:18.250Z,81.6
2024-03-11T18:08:17.547Z,82.8
2024-03-11T18:10:17.945Z,82.8
2024-03-11T18:12:17.548Z,83.4
2024-03-11T18:14:17.475Z,82.9
2024-03-11T18:16:17.441Z,82.9
2024-03-11T18:18:18.473Z,82.9
2024-03-11T18:20:17.641Z,82.9
2024-03-11T18:22:17.363Z,82.9
2024-03-11T18:24:17.358Z,83.1
2024-03-11T18:26:17.348Z,83.7
2024-03-11T18:28:17.196Z,83.7
2024-03-11T18:30:20.153Z,83.7
2024-03-11T18:32:17.173Z,82.9
2024-03-11T18:34:17.114Z,82.8
2024-03-11T18:36:17.153Z,82.8
2024-03-11T18:38:17.694Z,82.8
2024-03-11T18:40:17.420Z,82.3
2024-03-11T18:42:17.143Z,82.3
2024-03-11T18:44:17.115Z,82.3
2024-03-11T18:46:16.988Z,82.3
2024-03-11T18:48:17.055Z,82.3
2024-03-11T18:50:18.780Z,82.3
2024-03-11T18:52:17.015Z,81.3
2024-03-11T18:54:16.933Z,81.4
2024-03-11T18:56:18.013Z,81.4
2024-03-11T18:58:16.855Z,81.4
2024-03-11T19:00:17.752Z,81.4
2024-03-11T19:02:16.759Z,81.4
2024-03-11T19:04:16.885Z,82
2024-03-11T19:06:18.195Z,81.3
2024-03-11T19:08:18.210Z,80.5
2024-03-11T19:10:17.191Z,81.6
2024-03-11T19:12:16.710Z,81.6
2024-03-11T19:14:16.735Z,81.3
2024-03-11T19:16:17.156Z,81
2024-03-11T19:18:16.748Z,81
2024-03-11T19:20:17.998Z,81
2024-03-11T19:22:16.687Z,81
2024-03-11T19:24:16.421Z,80.8
2024-03-11T19:26:16.561Z,80.8
2024-03-11T19:28:16.409Z,80.8
2024-03-11T19:30:18.248Z,80.8
2024-03-11T19:32:16.584Z,81.7
2024-03-11T19:34:16.368Z,81.7
2024-03-11T19:36:23.236Z,81.1
2024-03-11T19:38:41.113Z,81.1
2024-03-11T19:40:26.375Z,81.7
2024-03-11T19:42:44.790Z,81.1
2024-03-11T19:44:33.523Z,81.3
2024-03-11T19:46:43.880Z,81.3
2024-03-11T19:49:04.384Z,81.8
2024-03-11T19:50:46.035Z,81.8
2024-03-11T19:52:45.240Z,81.8
2024-03-11T19:54:49.342Z,81.5
2024-03-11T19:56:52.446Z,82.5
2024-03-11T19:58:49.240Z,82.5
2024-03-11T20:00:54.498Z,81.9
2024-03-11T20:02:36.896Z,81.9
2024-03-11T20:04:51.414Z,82.4
2024-03-11T20:06:44.968Z,82.4
2024-03-11T20:08:36.531Z,82.4
2024-03-11T20:10:47.854Z,82.6
2024-03-11T20:12:39.339Z,82.6
2024-03-11T20:14:44.875Z,82.6
2024-03-11T20:16:44.390Z,82.6
2024-03-11T20:18:35.895Z,82
2024-03-11T20:20:39.795Z,82.6
2024-03-11T20:22:47.537Z,82.1
2024-03-11T20:24:44.722Z,82.4
2024-03-11T20:26:22.349Z,82.4
2024-03-11T20:28:20.384Z,82.7
2024-03-11T20:30:20.973Z,82.2
2024-03-11T20:32:23.953Z,82.2
2024-03-11T20:34:15.188Z,82.9
2024-03-11T20:36:14.954Z,82.9
2024-03-11T20:38:15.015Z,82.9
2024-03-11T20:40:15.093Z,82.9
2024-03-11T20:42:14.812Z,82.3
2024-03-11T20:44:15.357Z,82.3
2024-03-11T20:46:14.861Z,82.3
2024-03-11T20:48:14.704Z,82.3
2024-03-11T20:50:14.556Z,82.3
2024-03-11T20:52:14.585Z,82.8
2024-03-11T20:54:14.512Z,83
2024-03-11T20:56:14.712Z,83
2024-03-11T20:58:14.718Z,83.6
2024-03-11T21:00:14.903Z,83.6
2024-03-11T21:02:14.455Z,83.6
2024-03-11T21:04:14.210Z,83.7
2024-03-11T21:06:14.220Z,83.7
2024-03-11T21:08:14.180Z,83.7
2024-03-11T21:10:14.223Z,83.7
2024-03-11T21:12:14.140Z,83.7
2024-03-11T21:14:14.032Z,83.9
2024-03-11T21:16:14.585Z,84.1
2024-03-11T21:18:14.005Z,84.1
2024-03-11T21:20:14.018Z,84.1
2024-03-11T21:22:13.892Z,84.1
2024-03-11T21:24:13.812Z,83.8
2024-03-11T21:26:13.784Z,84.6
2024-03-11T21:28:13.829Z,84
2024-03-11T21:30:13.723Z,84
2024-03-11T21:32:13.603Z,84
2024-03-11T21:34:13.576Z,84.3
2024-03-11T21:36:13.461Z,84.3
2024-03-11T21:38:18.372Z,84.3
2024-03-11T21:40:14.075Z,84.3
2024-03-11T21:42:13.266Z,84.3
2024-03-11T21:44:13.238Z,84.6
2024-03-11T21:46:13.265Z,84.6
2024-03-11T21:48:14.184Z,84.6
2024-03-11T21:50:13.133Z,84.6
2024-03-11T21:52:13.185Z,84.6
2024-03-11T21:54:12.960Z,84.3
2024-03-11T21:56:13.043Z,84.3
2024-03-11T21:58:13.033Z,84.3
2024-03-11T22:00:13.777Z,84.3
2024-03-11T22:02:13.045Z,84.3
2024-03-11T22:04:12.739Z,84.8
2024-03-11T22:06:12.744Z,84.8
2024-03-11T22:08:12.717Z,84.8
2024-03-11T22:10:12.696Z,84.8
2024-03-11T22:12:12.614Z,84.8
2024-03-11T22:14:12.495Z,84.4
2024-03-11T22:16:12.526Z,84.4
2024-03-11T22:18:12.415Z,84.4
2024-03-11T22:20:12.424Z,84.4
2024-03-11T22:22:12.520Z,84.4
2024-03-11T22:24:12.351Z,84.9
2024-03-11T22:26:12.223Z,84.9
2024-03-11T22:28:12.110Z,84.9
2024-03-11T22:30:12.536Z,84.9
2024-03-11T22:32:12.122Z,85.2
2024-03-11T22:34:15.994Z,85
2024-03-11T22:36:11.833Z,85
2024-03-11T22:38:11.938Z,85
2024-03-11T22:40:12.247Z,85
2024-03-11T22:42:11.818Z,85
2024-03-11T22:44:11.879Z,85.3
2024-03-11T22:46:11.573Z,85.3
2024-03-11T22:48:11.848Z,85.3
2024-03-11T22:50:11.548Z,85.3
2024-03-11T22:52:11.699Z,85.3
2024-03-11T22:54:11.869Z,85.5
2024-03-11T22:56:13.037Z,85.5
2024-03-11T22:58:11.298Z,85.5
2024-03-11T23:00:12.252Z,85.5
2024-03-11T23:02:11.028Z,85.5
2024-03-11T23:04:11.719Z,85.3
2024-03-11T23:06:10.968Z,85.3
2024-03-11T23:08:11.087Z,85.8
2024-03-11T23:10:11.004Z,85.2
2024-03-11T23:12:10.936Z,85.2
2024-03-11T23:14:10.786Z,85.8
2024-03-11T23:16:14.386Z,85.8
2024-03-11T23:18:10.693Z,85.8
2024-03-11T23:20:10.770Z,85.8
2024-03-11T23:22:10.809Z,85.8
2024-03-11T23:24:10.403Z,85.8
2024-03-11T23:26:10.375Z,85.8
2024-03-11T23:28:10.850Z,85.8
2024-03-11T23:30:11.558Z,85.8
2024-03-11T23:32:10.273Z,85.8
2024-03-11T23:34:10.222Z,86.3
2024-03-11T23:36:10.211Z,86.3
2024-03-11T23:38:10.034Z,86.3
2024-03-11T23:40:12.606Z,86.3
2024-03-11T23:42:10.029Z,86.3
2024-03-11T23:44:10.056Z,86.2
2024-03-11T23:46:10.116Z,86.2
2024-03-11T23:48:09.786Z,86.2
2024-03-11T23:50:10.182Z,86.2
2024-03-11T23:52:09.705Z,86.2
2024-03-11T23:54:09.553Z,86.5
2024-03-11T23:56:09.501Z,86.5
2024-03-11T23:58:09.439Z,86.5
